createdAt,value
2022-08-07T00:00:57.584Z,95.31
2022-08-07T00:03:47.623Z,95.88
2022-08-07T00:06:35.577Z,96.01
2022-08-07T00:09:34.305Z,96.06
2022-08-07T00:12:16.391Z,96.17
2022-08-07T00:15:01.657Z,96.50
2022-08-07T00:17:48.964Z,96.71
2022-08-07T00:20:38.072Z,97.19
2022-08-07T00:23:28.298Z,97.70
2022-08-07T00:26:31.144Z,97.87
2022-08-07T00:29:04.838Z,97.71
2022-08-07T00:31:55.295Z,96.89
2022-08-07T00:34:43.311Z,96.25
2022-08-07T00:37:30.638Z,96.26
2022-08-07T00:40:36.180Z,96.08
2022-08-07T00:43:58.997Z,95.79
2022-08-07T00:46:01.989Z,95.76
2022-08-07T00:48:49.881Z,95.86
2022-08-07T00:51:58.576Z,95.94
2022-08-07T00:54:28.159Z,96.05
2022-08-07T00:57:18.775Z,96.00
2022-08-07T01:00:08.567Z,96.68
2022-08-07T01:02:56.229Z,97.17
2022-08-07T01:05:51.647Z,97.87
2022-08-07T01:08:36.191Z,98.33
2022-08-07T01:12:27.349Z,98.57
2022-08-07T01:14:15.584Z,98.85
2022-08-07T01:17:04.062Z,98.83
2022-08-07T01:19:54.588Z,98.89
2022-08-07T01:22:54.192Z,98.68
2022-08-07T01:25:53.779Z,98.77
2022-08-07T01:28:21.655Z,98.47
2022-08-07T01:31:09.807Z,98.34
2022-08-07T01:34:00.091Z,98.16
2022-08-07T01:36:57.661Z,97.79
2022-08-07T01:39:41.494Z,97.97
2022-08-07T01:42:38.097Z,97.90
2022-08-07T01:45:23.044Z,97.29
2022-08-07T01:48:30.133Z,97.51
2022-08-07T01:51:24.606Z,97.52
2022-08-07T01:54:11.817Z,96.67
2022-08-07T01:57:20.744Z,96.03
2022-08-07T02:00:13.801Z,96.38
2022-08-07T02:03:12.366Z,96.70
2022-08-07T02:06:08.945Z,96.51
2022-08-07T02:08:57.209Z,96.34
2022-08-07T02:12:02.830Z,96.48
2022-08-07T02:14:41.095Z,96.41
2022-08-07T02:17:31.724Z,96.36
2022-08-07T02:20:23.483Z,96.25
2022-08-07T02:23:07.848Z,95.87
2022-08-07T02:26:30.570Z,95.62
2022-08-07T02:28:46.352Z,95.83
2022-08-07T02:31:36.257Z,95.63
2022-08-07T02:34:23.849Z,95.55
2022-08-07T02:37:11.784Z,95.67
2022-08-07T02:40:11.819Z,95.88
2022-08-07T02:42:50.552Z,95.64
2022-08-07T02:46:00.743Z,95.57
2022-08-07T02:48:32.423Z,95.37
2022-08-07T02:51:41.678Z,95.78
2022-08-07T02:54:13.168Z,95.47
2022-08-07T02:57:03.215Z,95.36
2022-08-07T03:00:00.839Z,95.32
2022-08-07T03:02:54.587Z,95.51
2022-08-07T03:05:38.065Z,95.59
2022-08-07T03:08:26.846Z,95.85
2022-08-07T03:11:15.245Z,96.18
2022-08-07T03:14:04.904Z,96.79
2022-08-07T03:16:52.730Z,96.68
2022-08-07T03:19:40.512Z,96.77
2022-08-07T03:22:30.567Z,96.79
2022-08-07T03:25:21.128Z,96.59
2022-08-07T03:28:38.434Z,96.37
2022-08-07T03:31:18.216Z,96.62
2022-08-07T03:34:07.392Z,96.85
2022-08-07T03:36:57.367Z,96.82
2022-08-07T03:40:13.189Z,96.92
2022-08-07T03:42:37.162Z,97.08
2022-08-07T03:45:30.113Z,97.24
2022-08-07T03:48:16.598Z,97.35
2022-08-07T03:51:04.658Z,97.48
2022-08-07T03:54:32.953Z,97.55
2022-08-07T03:56:42.258Z,97.70
2022-08-07T03:59:32.525Z,97.43
2022-08-07T04:02:20.072Z,96.96
2022-08-07T04:05:08.450Z,96.12
2022-08-07T04:07:57.713Z,95.27
2022-08-07T04:10:54.059Z,94.82
2022-08-07T04:14:14.030Z,94.62
2022-08-07T04:16:30.928Z,94.37
2022-08-07T04:19:15.649Z,94.44
2022-08-07T04:22:08.702Z,94.42
2022-08-07T04:24:52.935Z,94.06
2022-08-07T04:27:44.282Z,93.95
2022-08-07T04:30:43.690Z,93.76
2022-08-07T04:33:19.762Z,93.60
2022-08-07T04:36:09.529Z,93.46
2022-08-07T04:38:58.582Z,93.26
2022-08-07T04:41:50.460Z,93.26
2022-08-07T04:44:37.025Z,93.18
2022-08-07T04:47:56.947Z,93.31
2022-08-07T04:50:45.530Z,93.49
2022-08-07T04:54:06.462Z,93.20
2022-08-07T04:58:16.566Z,92.58
2022-08-07T05:00:12.395Z,91.61
2022-08-07T05:02:24.354Z,90.49
2022-08-07T05:05:53.131Z,89.44
2022-08-07T05:10:58.554Z,88.34
2022-08-07T05:14:55.033Z,88.21
2022-08-07T05:16:44.021Z,87.17
2022-08-07T05:19:45.037Z,85.20
2022-08-07T05:22:27.605Z,81.43
2022-08-07T05:25:26.268Z,79.28
2022-08-07T05:28:20.656Z,77.63
2022-08-07T05:30:53.739Z,75.28
2022-08-07T05:33:41.801Z,74.10
2022-08-07T05:36:35.483Z,73.12
2022-08-07T05:40:07.112Z,71.69
2022-08-07T05:42:12.866Z,69.51
2022-08-07T05:45:14.475Z,67.04
2022-08-07T05:48:02.118Z,66.95
2022-08-07T05:50:39.484Z,65.21
2022-08-07T05:54:13.597Z,64.76
2022-08-07T05:56:19.436Z,65.29
2022-08-07T05:59:11.194Z,65.82
2022-08-07T06:02:00.812Z,66.21
2022-08-07T06:04:53.640Z,65.83
2022-08-07T06:08:13.536Z,64.80
2022-08-07T06:10:30.259Z,64.75
2022-08-07T06:13:18.001Z,63.36
2022-08-07T06:16:10.219Z,61.95
2022-08-07T06:19:01.014Z,61.09
2022-08-07T06:22:16.400Z,59.08
2022-08-07T06:24:56.932Z,59.23
2022-08-07T06:27:44.279Z,57.54
2022-08-07T06:30:31.970Z,57.00
2022-08-07T06:33:09.911Z,57.26
2022-08-07T06:36:12.061Z,56.18
2022-08-07T06:38:58.414Z,53.88
2022-08-07T06:42:01.495Z,54.67
2022-08-07T06:44:36.644Z,55.30
2022-08-07T06:47:22.312Z,56.57
2022-08-07T06:50:10.938Z,56.56
2022-08-07T06:52:58.856Z,56.40
2022-08-07T06:55:53.963Z,56.78
2022-08-07T06:58:37.396Z,54.12
2022-08-07T07:01:26.329Z,55.36
2022-08-07T07:04:28.027Z,55.51
2022-08-07T07:07:10.778Z,57.07
2022-08-07T07:09:55.585Z,57.10
2022-08-07T07:12:53.575Z,57.20
2022-08-07T07:15:43.252Z,57.23
2022-08-07T07:18:46.953Z,55.52
2022-08-07T07:21:40.103Z,55.15
2022-08-07T07:24:18.090Z,54.45
2022-08-07T07:27:06.120Z,54.60
